Time;durP1;ratioP1;P1;durP2;ratioP2;P2;SDS_P1;SDS_P2;PMS_P1;PMS_P2;Temp;Humidity;BMP_temperature;BMP_pressure;BME280_temperature;BME280_humidity;BME280_pressure;Samples;Min_cycle;Max_cycle;Signal;HPM_P1;HPM_P2
2024/03/31 00:01:10;;;;;;;44.75;13.20;;;;;;;16.24;51.89;93108.19;4973275;28;20222;-89
2024/03/31 00:04:06;;;;;;;38.92;11.18;;;;;;;16.32;51.84;93106.06;4975264;28;20207;-90
2024/03/31 00:06:44;;;;;;;39.90;11.27;;;;;;;16.27;52.65;93135.44;4974795;28;20682;-89
2024/03/31 00:09:28;;;;;;;47.92;12.18;;;;;;;16.12;52.76;93153.72;4976249;28;20283;-90
2024/03/31 00:11:59;;;;;;;41.03;11.82;;;;;;;15.99;52.92;93160.28;4978032;28;20204;-88
2024/03/31 00:14:34;;;;;;;33.50;10.30;;;;;;;16.03;53.32;93176.88;4980290;28;20296;-91
2024/03/31 00:17:06;;;;;;;37.72;11.20;;;;;;;16.09;53.61;93199.16;4987985;28;20199;-90
2024/03/31 00:22:24;;;;;;;41.33;12.07;;;;;;;16.06;53.98;93206.69;4973655;28;20825;-89
2024/03/31 00:25:01;;;;;;;36.95;10.65;;;;;;;16.12;53.36;93203.03;4976372;28;20844;-89
2024/03/31 00:27:31;;;;;;;34.72;10.18;;;;;;;16.21;53.54;93202.19;4975709;28;20262;-88
2024/03/31 00:30:10;;;;;;;38.92;10.20;;;;;;;16.23;53.29;93194.13;4976872;28;20251;-88
2024/03/31 00:32:48;;;;;;;35.47;11.43;;;;;;;16.04;54.30;93224.38;4975797;28;20212;-88
2024/03/31 00:35:34;;;;;;;37.30;11.40;;;;;;;16.05;54.02;93218.13;4965088;28;20810;-89
2024/03/31 00:38:09;;;;;;;36.97;11.35;;;;;;;16.08;54.03;93222.78;4975730;28;20216;-89
2024/03/31 00:40:56;;;;;;;34.58;10.77;;;;;;;16.01;54.38;93237.88;4975780;28;20219;-89
2024/03/31 00:46:48;;;;;;;40.45;11.75;;;;;;;15.85;55.15;93255.31;4968241;28;20204;-90
2024/03/31 00:49:18;;;;;;;36.13;11.15;;;;;;;15.72;54.85;93274.84;4970325;28;20705;-90
2024/03/31 00:51:52;;;;;;;38.92;12.43;;;;;;;15.71;55.48;93295.84;4974353;28;20340;-90
2024/03/31 00:54:31;;;;;;;34.60;12.48;;;;;;;15.64;55.97;93316.88;4975339;28;20219;-91
2024/03/31 00:57:19;;;;;;;42.53;12.52;;;;;;;15.60;55.28;93313.25;4974780;28;20200;-91
2024/03/31 01:00:13;;;;;;;36.17;11.35;;;;;;;15.61;55.61;93332.97;4977673;28;20303;-90
2024/03/31 01:05:30;;;;;;;36.45;12.95;;;;;;;15.65;55.42;93308.06;4967193;28;20229;-89
2024/03/31 01:08:03;;;;;;;40.75;13.07;;;;;;;15.39;56.74;93348.03;4953668;28;20216;-90
2024/03/31 01:10:38;;;;;;;42.28;13.07;;;;;;;15.34;56.70;93346.19;4962723;28;20204;-91
2024/03/31 01:13:06;;;;;;;39.25;13.27;;;;;;;15.25;56.75;93372.91;4984505;28;20278;-90
2024/03/31 01:15:54;;;;;;;45.90;12.68;;;;;;;15.24;57.36;93384.28;4991933;28;20697;-90
2024/03/31 01:18:20;;;;;;;42.42;13.48;;;;;;;15.28;57.03;93369.78;4992378;28;20287;-90
2024/03/31 01:20:56;;;;;;;37.95;13.13;;;;;;;15.09;57.56;93426.53;4992110;28;20637;-91
2024/03/31 01:23:35;;;;;;;42.65;13.25;;;;;;;14.83;58.37;93506.78;4958185;28;20244;-90
2024/03/31 01:26:04;;;;;;;45.03;12.85;;;;;;;14.54;58.42;93512.63;4972861;28;20267;-90
2024/03/31 01:28:34;;;;;;;36.47;11.63;;;;;;;14.27;58.59;93539.34;4972944;28;20637;-90
2024/03/31 01:31:05;;;;;;;37.10;10.70;;;;;;;14.09;58.95;93550.88;4973264;28;20208;-91
2024/03/31 01:33:31;;;;;;;41.78;9.60;;;;;;;14.07;58.85;93558.09;4972722;28;20216;-89
2024/03/31 01:36:07;;;;;;;28.15;8.85;;;;;;;13.96;58.49;93566.03;4971783;28;20230;-89
2024/03/31 01:38:45;;;;;;;;;;;;;;;;;;;;;
2024/03/31 01:41:22;;;;;;;31.42;8.35;;;;;;;13.96;58.11;93563.44;4969406;28;20236;-90
2024/03/31 01:44:04;;;;;;;28.27;7.35;;;;;;;13.93;57.87;93551.78;4973046;28;20238;-90
2024/03/31 01:46:41;;;;;;;25.02;6.78;;;;;;;13.98;57.23;93541.47;4972151;28;20250;-89
2024/03/31 01:49:15;;;;;;;26.15;6.63;;;;;;;13.96;57.27;93527.22;4972158;28;20215;-90
2024/03/31 01:51:59;;;;;;;30.20;6.68;;;;;;;13.98;56.83;93513.03;4971904;28;20207;-90
2024/03/31 01:54:51;;;;;;;19.08;5.55;;;;;;;14.02;56.71;93495.97;4963021;28;20307;-89
2024/03/31 01:57:24;;;;;;;25.38;6.18;;;;;;;14.13;56.49;93474.31;4953153;28;20204;-91
2024/03/31 02:00:38;;;;;;;30.17;6.13;;;;;;;14.11;56.34;93454.88;4952608;28;20208;-89
2024/03/31 02:03:22;;;;;;;22.63;6.13;;;;;;;14.17;56.07;93417.66;4953205;28;20204;-88
2024/03/31 02:05:49;;;;;;;25.52;5.13;;;;;;;14.14;56.01;93418.16;4952823;28;20288;-90
2024/03/31 02:08:40;;;;;;;18.52;4.72;;;;;;;14.20;56.01;93406.03;4979776;28;20233;-89
2024/03/31 02:11:48;;;;;;;23.45;5.40;;;;;;;14.18;56.23;93401.88;4957738;28;20279;-89
2024/03/31 02:14:26;;;;;;;28.65;5.50;;;;;;;14.29;55.63;93376.03;4945624;28;20225;-89
2024/03/31 02:20:00;;;;;;;20.15;4.63;;;;;;;14.18;55.66;93357.88;4951140;28;20208;-90
2024/03/31 02:22:56;;;;;;;24.48;4.70;;;;;;;14.22;56.02;93368.53;4953038;28;20224;-89
2024/03/31 02:25:21;;;;;;;25.55;5.35;;;;;;;14.23;56.01;93377.84;4969375;28;20650;-89
2024/03/31 02:27:58;;;;;;;23.02;4.57;;;;;;;14.34;56.06;93384.59;4962500;28;20200;-89
2024/03/31 02:30:32;;;;;;;24.90;5.00;;;;;;;14.38;55.59;93384.88;4952715;28;20205;-89
2024/03/31 02:32:58;;;;;;;19.20;3.97;;;;;;;14.39;55.41;93360.56;4952725;28;20296;-89
2024/03/31 02:35:26;;;;;;;26.40;5.20;;;;;;;14.44;55.50;93348.41;4952249;28;20643;-89
2024/03/31 02:38:01;;;;;;;22.95;4.50;;;;;;;14.44;55.57;93345.03;4952056;28;20201;-89
2024/03/31 02:40:27;;;;;;;23.65;4.47;;;;;;;14.41;55.72;93330.81;4952141;28;20666;-89
2024/03/31 02:42:57;;;;;;;25.30;5.10;;;;;;;14.45;55.68;93331.06;4958232;28;20279;-89
2024/03/31 02:45:35;;;;;;;19.02;5.03;;;;;;;14.48;55.49;93310.63;4970832;28;20788;-89
2024/03/31 02:48:01;;;;;;;24.55;5.35;;;;;;;14.37;55.98;93316.03;4971174;28;20259;-89
2024/03/31 02:50:39;;;;;;;23.48;4.75;;;;;;;14.36;56.19;93320.41;4970787;28;20204;-89
2024/03/31 02:53:05;;;;;;;25.27;4.68;;;;;;;14.30;56.05;93312.88;4971354;28;20199;-89
2024/03/31 02:55:38;;;;;;;20.65;5.43;;;;;;;14.28;56.09;93325.31;4971523;28;20228;-89
2024/03/31 02:58:08;;;;;;;22.30;5.18;;;;;;;14.22;56.67;93332.28;4970227;28;20212;-89
2024/03/31 03:00:35;;;;;;;20.65;4.70;;;;;;;14.35;55.81;93336.22;4971158;28;20203;-89
2024/03/31 03:03:05;;;;;;;24.80;5.20;;;;;;;14.25;56.22;93325.81;4976267;28;20614;-89
2024/03/31 03:05:34;;;;;;;17.52;4.53;;;;;;;14.26;56.06;93311.84;4982350;28;20219;-90
2024/03/31 03:08:00;;;;;;;22.35;4.50;;;;;;;14.35;55.83;93313.69;4990215;28;20222;-90
2024/03/31 03:10:28;;;;;;;21.85;4.20;;;;;;;14.41;55.79;93309.34;4990261;28;20298;-90
2024/03/31 03:13:04;;;;;;;21.30;4.20;;;;;;;14.46;55.76;93299.75;4979957;28;20196;-89
2024/03/31 03:15:37;;;;;;;22.00;4.90;;;;;;;14.48;55.54;93296.91;4966150;28;20322;-89
2024/03/31 03:18:07;;;;;;;19.40;4.82;;;;;;;14.37;55.83;93305.66;4970448;28;20243;-89
2024/03/31 03:20:46;;;;;;;27.90;4.83;;;;;;;14.22;56.25;93334.09;4970290;28;20200;-90
2024/03/31 03:23:13;;;;;;;23.25;5.00;;;;;;;14.32;56.09;93323.75;4971217;28;20203;-91
2024/03/31 03:25:40;;;;;;;27.02;5.00;;;;;;;14.39;55.89;93313.97;4979535;28;20208;-88
2024/03/31 03:28:22;;;;;;;20.35;4.47;;;;;;;14.48;56.30;93320.22;4976501;28;20219;-89
2024/03/31 03:30:51;;;;;;;22.23;5.10;;;;;;;14.50;55.53;93323.31;4972550;28;20200;-89
2024/03/31 03:33:24;;;;;;;19.95;4.60;;;;;;;14.50;55.59;93315.56;4972378;28;20208;-88
2024/03/31 03:35:51;;;;;;;23.40;4.82;;;;;;;14.46;55.57;93310.09;4973439;28;20247;-91
2024/03/31 03:38:28;;;;;;;20.13;4.20;;;;;;;14.21;56.49;93330.72;4973043;28;20196;-90
2024/03/31 03:40:57;;;;;;;23.45;4.93;;;;;;;14.15;56.67;93348.03;4973695;28;20184;-90
2024/03/31 03:43:23;;;;;;;15.20;3.80;;;;;;;14.11;56.67;93357.34;4971993;28;20204;-89
2024/03/31 03:45:55;;;;;;;23.20;4.72;;;;;;;14.06;56.65;93352.13;4972226;28;20231;-89
2024/03/31 03:48:23;;;;;;;22.60;4.93;;;;;;;14.06;56.92;93341.00;4965216;28;20689;-89
2024/03/31 03:50:49;;;;;;;25.50;5.10;;;;;;;14.00;56.65;93363.50;4953021;28;20213;-89
2024/03/31 03:53:17;;;;;;;24.60;5.40;;;;;;;14.05;56.84;93358.34;4952214;28;20272;-90
2024/03/31 03:55:43;;;;;;;23.80;5.47;;;;;;;14.14;56.42;93340.53;4951043;28;20224;-89
2024/03/31 03:58:15;;;;;;;26.75;4.78;;;;;;;14.13;56.81;93341.56;4951822;28;20230;-89
2024/03/31 04:00:45;;;;;;;17.17;4.15;;;;;;;14.20;55.76;93324.00;4978535;28;20239;-89
2024/03/31 04:03:24;;;;;;;18.35;4.72;;;;;;;14.18;56.55;93315.72;4965747;28;20299;-90
2024/03/31 04:05:53;;;;;;;21.40;4.45;;;;;;;14.16;56.31;93320.34;4951381;28;20279;-90
2024/03/31 04:08:21;;;;;;;25.05;4.63;;;;;;;14.14;56.21;93323.19;4951346;28;20235;-89
2024/03/31 04:10:53;;;;;;;18.35;4.72;;;;;;;14.16;56.15;93317.78;4951474;28;20217;-90
2024/03/31 04:13:28;;;;;;;19.35;4.47;;;;;;;14.08;56.49;93310.47;4965180;28;20283;-90
2024/03/31 04:15:57;;;;;;;20.80;4.60;;;;;;;13.80;57.12;93345.28;4970089;28;20275;-89
2024/03/31 04:18:27;;;;;;;24.75;4.65;;;;;;;13.79;57.31;93347.09;4969811;28;20204;-89
2024/03/31 04:20:53;;;;;;;27.25;4.75;;;;;;;13.83;57.21;93352.56;4965007;28;20208;-89
2024/03/31 04:23:26;;;;;;;25.33;5.00;;;;;;;13.88;56.94;93349.97;4970116;28;20731;-89
2024/03/31 04:26:01;;;;;;;15.90;4.60;;;;;;;13.90;57.15;93358.25;4970444;28;20310;-91
2024/03/31 04:28:28;;;;;;;23.20;4.60;;;;;;;13.86;56.92;93352.03;4970202;28;20267;-91
2024/03/31 04:30:59;;;;;;;19.98;4.53;;;;;;;13.90;57.52;93353.09;4970355;28;20236;-90
2024/03/31 04:33:32;;;;;;;23.63;4.82;;;;;;;13.93;57.06;93336.28;4972187;28;20200;-90
2024/03/31 04:36:00;;;;;;;25.42;4.43;;;;;;;13.93;56.81;93321.56;4971714;28;20312;-90
2024/03/31 04:38:31;;;;;;;24.40;4.97;;;;;;;13.94;56.74;93328.28;4973929;28;20200;-90
2024/03/31 04:41:02;;;;;;;18.30;4.10;;;;;;;13.90;56.78;93326.44;4973145;28;20231;-90
2024/03/31 04:43:29;;;;;;;20.27;5.43;;;;;;;13.90;57.32;93341.97;4973428;28;20203;-90
2024/03/31 04:46:03;;;;;;;17.52;4.35;;;;;;;13.97;56.87;93351.06;4973127;28;20227;-90
2024/03/31 04:48:31;;;;;;;21.00;4.93;;;;;;;14.02;56.66;93361.44;4973600;28;20246;-90
2024/03/31 04:51:00;;;;;;;27.88;5.40;;;;;;;13.99;56.92;93350.81;4972151;28;20205;-90
2024/03/31 04:53:30;;;;;;;27.52;5.10;;;;;;;13.92;57.09;93374.31;4967032;28;20263;-89
2024/03/31 04:55:59;;;;;;;23.50;5.18;;;;;;;13.93;57.14;93393.22;4977465;28;20219;-90
2024/03/31 04:58:26;;;;;;;24.05;5.05;;;;;;;13.87;57.47;93407.91;4984758;28;20626;-89
2024/03/31 05:00:55;;;;;;;18.58;4.68;;;;;;;13.85;57.66;93427.31;4992384;28;20290;-90
2024/03/31 05:03:23;;;;;;;21.90;5.10;;;;;;;13.83;57.79;93433.53;4993059;28;20230;-90
2024/03/31 05:05:50;;;;;;;24.50;4.88;;;;;;;13.83;57.76;93427.56;4992790;28;20231;-89
2024/03/31 05:08:16;;;;;;;16.50;4.35;;;;;;;13.88;57.42;93417.22;4976862;28;20204;-90
2024/03/31 05:10:58;;;;;;;22.17;4.65;;;;;;;13.69;57.90;93429.00;4973530;28;20220;-91
2024/03/31 05:13:32;;;;;;;23.98;5.25;;;;;;;13.55;57.97;93443.38;4973345;28;20202;-89
2024/03/31 05:15:58;;;;;;;21.45;4.35;;;;;;;13.55;58.30;93451.13;4972742;28;20258;-90
2024/03/31 05:18:27;;;;;;;18.63;4.70;;;;;;;13.62;58.10;93447.34;4973289;28;20216;-90
2024/03/31 05:20:57;;;;;;;19.50;4.97;;;;;;;13.73;58.04;93445.59;4972622;28;20238;-89
2024/03/31 05:23:28;;;;;;;28.40;4.57;;;;;;;13.78;58.20;93443.81;4971136;28;20228;-89
2024/03/31 05:25:55;;;;;;;22.15;4.70;;;;;;;13.79;57.96;93447.19;4972251;28;20633;-90
2024/03/31 05:28:25;;;;;;;23.02;5.40;;;;;;;13.76;57.83;93435.53;4972298;28;20188;-89
2024/03/31 05:30:50;;;;;;;21.40;5.75;;;;;;;13.55;58.71;93451.91;4972823;28;20212;-91
2024/03/31 05:33:18;;;;;;;21.08;5.03;;;;;;;13.47;58.60;93462.69;4972734;28;20208;-90
2024/03/31 05:35:45;;;;;;;20.70;4.68;;;;;;;13.47;58.93;93484.16;4972611;28;20611;-90
2024/03/31 05:38:15;;;;;;;37.10;6.30;;;;;;;13.41;59.17;93508.41;4973468;28;20255;-89
2024/03/31 05:40:42;;;;;;;26.15;5.53;;;;;;;13.50;59.54;93508.75;4967315;28;20654;-91
2024/03/31 05:43:12;;;;;;;20.80;4.45;;;;;;;13.60;58.91;93505.47;4956778;28;20232;-90
2024/03/31 05:45:41;;;;;;;15.65;5.03;;;;;;;13.68;58.15;93492.09;4953266;28;20224;-90
2024/03/31 05:48:08;;;;;;;21.95;6.13;;;;;;;13.69;59.13;93493.66;4953110;28;20207;-91
2024/03/31 05:50:40;;;;;;;17.60;5.10;;;;;;;13.63;59.23;93505.00;4953296;28;20213;-91
2024/03/31 05:53:07;;;;;;;27.80;5.88;;;;;;;13.67;58.67;93482.75;4980081;28;20200;-89
2024/03/31 05:55:34;;;;;;;25.90;4.93;;;;;;;13.73;58.27;93476.63;4984592;28;20247;-90
2024/03/31 05:58:01;;;;;;;25.88;5.20;;;;;;;13.78;57.65;93455.97;4970411;28;20216;-89
2024/03/31 06:00:29;;;;;;;19.42;5.00;;;;;;;13.77;57.66;93431.13;4971709;28;20205;-91
2024/03/31 06:02:58;;;;;;;23.90;4.40;;;;;;;13.81;57.58;93451.09;4972012;28;20228;-89
2024/03/31 06:05:24;;;;;;;19.43;5.57;;;;;;;13.91;57.41;93458.13;4971613;28;20311;-91
2024/03/31 06:07:52;;;;;;;26.75;4.82;;;;;;;13.95;57.68;93451.44;4972098;28;20291;-90
2024/03/31 06:10:18;;;;;;;22.00;5.00;;;;;;;13.97;57.29;93433.06;4971656;28;20231;-89
2024/03/31 06:12:46;;;;;;;24.45;4.75;;;;;;;13.95;57.18;93437.72;4970138;28;20235;-90
2024/03/31 06:15:11;;;;;;;19.52;4.93;;;;;;;13.94;57.32;93438.75;4971473;28;20235;-90
2024/03/31 06:17:39;;;;;;;30.08;5.00;;;;;;;13.98;56.92;93440.59;4971648;28;20831;-90
2024/03/31 06:20:08;;;;;;;23.63;4.82;;;;;;;14.04;57.06;93444.78;4970890;28;20204;-90
2024/03/31 06:22:39;;;;;;;22.88;4.57;;;;;;;14.03;57.16;93435.44;4971104;28;20230;-91
2024/03/31 06:25:05;;;;;;;24.95;5.82;;;;;;;14.06;57.26;93419.41;4970655;28;20335;-90
2024/03/31 06:27:37;;;;;;;18.48;4.90;;;;;;;14.06;57.03;93418.63;4970914;28;20204;-90
2024/03/31 06:30:05;;;;;;;17.73;4.65;;;;;;;14.05;56.95;93425.59;4966430;28;20275;-89
2024/03/31 06:32:31;;;;;;;31.63;5.30;;;;;;;13.88;58.09;93444.91;4970391;28;20203;-90
2024/03/31 06:34:57;;;;;;;18.30;5.18;;;;;;;13.83;58.39;93461.97;4971447;28;20216;-90
2024/03/31 06:37:31;;;;;;;21.30;4.93;;;;;;;13.84;58.30;93457.56;4970695;28;20270;-90
2024/03/31 06:39:59;;;;;;;29.35;6.00;;;;;;;13.72;58.56;93460.31;4971345;28;20207;-90
2024/03/31 06:42:27;;;;;;;23.90;5.18;;;;;;;13.79;58.10;93452.34;4970960;28;20271;-90
2024/03/31 06:44:53;;;;;;;24.17;5.00;;;;;;;13.77;58.98;93468.13;4967617;28;20247;-89
2024/03/31 06:47:21;;;;;;;19.58;4.93;;;;;;;13.79;58.51;93470.47;4963976;28;20317;-90
2024/03/31 06:49:46;;;;;;;19.38;5.03;;;;;;;13.90;58.20;93472.09;4982880;28;20188;-89
2024/03/31 06:52:16;;;;;;;22.73;5.28;;;;;;;13.93;58.13;93450.13;4990918;28;20209;-90
2024/03/31 06:54:41;;;;;;;14.98;4.20;;;;;;;13.95;57.89;93440.31;4990468;28;20302;-90
2024/03/31 06:57:12;;;;;;;25.08;5.47;;;;;;;13.99;57.71;93438.78;4990291;28;20315;-90
2024/03/31 06:59:37;;;;;;;19.85;4.57;;;;;;;14.02;57.86;93436.47;4990031;28;20208;-89
2024/03/31 07:02:32;;;;;;;21.02;4.55;;;;;;;14.11;58.25;93452.28;4969781;28;20228;-90
2024/03/31 07:05:02;;;;;;;26.85;5.00;;;;;;;14.05;57.33;93415.25;4959373;29;20226;-91
2024/03/31 07:07:50;;;;;;;20.45;5.28;;;;;;;14.04;57.57;93431.84;4971030;29;20207;-90
2024/03/31 07:10:18;;;;;;;19.70;5.15;;;;;;;14.00;57.69;93441.13;4970318;29;20207;-90
2024/03/31 07:12:45;;;;;;;25.75;5.63;;;;;;;13.97;58.03;93438.25;4979829;28;20232;-90
2024/03/31 07:15:34;;;;;;;29.70;5.28;;;;;;;13.92;57.80;93445.97;4989501;28;20304;-89
2024/03/31 07:18:41;;;;;;;22.83;4.93;;;;;;;13.94;57.41;93430.97;4966856;28;20244;-91
2024/03/31 07:21:11;;;;;;;25.33;5.55;;;;;;;13.97;57.17;93422.72;4967584;29;20204;-90
2024/03/31 07:23:38;;;;;;;21.92;5.60;;;;;;;14.08;57.16;93417.34;4970867;28;20243;-90
2024/03/31 07:26:06;;;;;;;26.40;5.45;;;;;;;14.15;57.37;93404.19;4985693;28;20223;-89
2024/03/31 07:28:33;;;;;;;18.92;4.88;;;;;;;14.02;57.99;93431.31;4971005;28;20203;-90
2024/03/31 07:30:59;;;;;;;18.30;5.03;;;;;;;13.99;58.36;93443.97;4971155;28;20708;-90
2024/03/31 07:33:25;;;;;;;23.55;5.65;;;;;;;14.00;58.00;93438.53;4968363;28;20287;-89
2024/03/31 07:35:58;;;;;;;29.25;5.45;;;;;;;14.02;57.47;93413.19;4970460;28;20279;-89
2024/03/31 07:38:25;;;;;;;26.27;5.47;;;;;;;14.08;57.87;93419.94;4970159;28;20324;-88
2024/03/31 07:40:50;;;;;;;21.75;4.40;;;;;;;14.24;57.46;93420.03;4970433;28;20218;-90
2024/03/31 07:43:25;;;;;;;19.25;4.97;;;;;;;14.30;57.38;93406.84;4970587;28;20314;-89
2024/03/31 07:45:58;;;;;;;21.10;5.03;;;;;;;14.32;57.19;93381.50;4970574;28;20644;-90
2024/03/31 07:48:27;;;;;;;19.95;4.72;;;;;;;14.33;57.26;93370.09;4968309;28;20207;-89
2024/03/31 07:50:57;;;;;;;19.75;5.43;;;;;;;14.22;57.37;93373.69;4967604;28;20215;-90
2024/03/31 07:53:24;;;;;;;29.20;5.25;;;;;;;14.19;57.80;93389.72;4990374;28;20198;-88
2024/03/31 07:55:55;;;;;;;22.58;5.68;;;;;;;14.25;58.39;93424.16;4973855;28;20239;-89
2024/03/31 07:58:22;;;;;;;16.83;4.82;;;;;;;14.36;58.15;93420.59;4970236;28;20266;-90
2024/03/31 08:00:48;;;;;;;18.35;5.40;;;;;;;14.42;58.46;93420.41;4970039;28;20219;-90
2024/03/31 08:03:14;;;;;;;24.25;4.90;;;;;;;14.43;58.03;93405.66;4970198;28;20224;-90
2024/03/31 08:05:40;;;;;;;21.63;5.28;;;;;;;14.34;57.64;93387.19;4968828;28;20596;-89
2024/03/31 08:08:15;;;;;;;23.35;5.75;;;;;;;14.36;57.82;93405.84;4973039;28;20287;-90
2024/03/31 08:10:42;;;;;;;16.63;5.85;;;;;;;14.31;58.23;93413.59;4974267;28;20207;-89
2024/03/31 08:13:15;;;;;;;26.80;6.68;;;;;;;14.37;57.75;93412.59;4973565;28;20201;-90
2024/03/31 08:15:42;;;;;;;24.52;5.47;;;;;;;14.38;57.81;93411.56;4973500;28;20220;-89
2024/03/31 08:18:10;;;;;;;27.65;6.88;;;;;;;14.43;57.98;93419.34;4973444;28;20231;-89
2024/03/31 08:20:36;;;;;;;21.33;5.68;;;;;;;14.57;57.68;93421.50;4971654;28;20212;-89
2024/03/31 08:23:08;;;;;;;20.90;5.28;;;;;;;14.67;57.26;93398.97;4969086;28;20578;-89
2024/03/31 08:25:37;;;;;;;29.30;6.50;;;;;;;14.76;56.92;93381.91;4973419;28;20227;-90
2024/03/31 08:28:08;;;;;;;21.95;5.50;;;;;;;14.87;56.96;93382.69;4973329;28;20204;-89
2024/03/31 08:30:37;;;;;;;28.63;6.28;;;;;;;14.97;57.29;93390.50;4973978;28;20588;-90
2024/03/31 08:33:11;;;;;;;21.33;5.95;;;;;;;14.86;58.13;93415.59;4973497;28;20228;-89
2024/03/31 08:35:38;;;;;;;23.33;5.53;;;;;;;14.86;58.23;93425.97;4973254;28;20636;-89
2024/03/31 08:38:05;;;;;;;24.95;5.97;;;;;;;14.72;57.99;93393.81;4971523;28;20207;-89
2024/03/31 08:40:44;;;;;;;25.80;6.50;;;;;;;14.67;57.60;93387.84;4973113;28;20215;-89
2024/03/31 08:43:20;;;;;;;22.75;5.30;;;;;;;14.55;57.42;93364.00;4981113;28;20227;-89
2024/03/31 08:45:47;;;;;;;27.73;5.78;;;;;;;14.45;57.74;93373.28;4992983;28;20230;-90
2024/03/31 08:48:17;;;;;;;24.13;5.80;;;;;;;14.35;57.83;93383.56;4992308;28;20207;-89
2024/03/31 08:50:46;;;;;;;28.42;5.38;;;;;;;14.44;58.23;93404.59;4992432;28;20231;-90
2024/03/31 08:53:15;;;;;;;27.58;6.90;;;;;;;14.64;57.88;93398.69;4986591;28;20258;-89
2024/03/31 08:55:43;;;;;;;20.20;5.38;;;;;;;14.91;57.00;93363.03;4973033;28;20220;-89
2024/03/31 08:58:13;;;;;;;21.33;5.13;;;;;;;14.98;56.09;93316.16;4972576;28;20212;-89
2024/03/31 09:00:42;;;;;;;28.58;5.45;;;;;;;14.94;55.61;93279.59;4973169;28;20255;-89
2024/03/31 09:03:10;;;;;;;21.90;5.85;;;;;;;14.90;55.87;93273.38;4973397;28;20302;-89
2024/03/31 09:05:39;;;;;;;33.55;6.30;;;;;;;14.91;56.11;93302.66;4972444;28;20234;-89
2024/03/31 09:08:09;;;;;;;24.75;6.43;;;;;;;14.90;56.13;93307.06;4972496;28;20196;-89
2024/03/31 09:10:36;;;;;;;23.98;5.65;;;;;;;15.09;55.34;93287.38;4969090;28;20565;-89
2024/03/31 09:13:10;;;;;;;24.98;5.70;;;;;;;15.15;54.89;93270.00;4972699;28;20231;-91
2024/03/31 09:15:40;;;;;;;23.88;5.60;;;;;;;15.21;55.27;93261.16;4972604;28;20230;-89
2024/03/31 09:18:07;;;;;;;27.27;4.38;;;;;;;15.21;54.14;93207.50;4971723;28;20216;-90
2024/03/31 09:20:35;;;;;;;20.48;4.75;;;;;;;15.13;54.34;93215.84;4971402;28;20251;-89
2024/03/31 09:23:05;;;;;;;24.42;5.00;;;;;;;15.21;54.59;93224.88;4972170;28;20224;-89
2024/03/31 09:25:35;;;;;;;27.52;5.50;;;;;;;15.48;53.22;93164.91;4966937;28;20337;-89
2024/03/31 09:28:05;;;;;;;31.25;5.47;;;;;;;15.67;52.73;93139.19;4968459;28;20208;-89
2024/03/31 09:30:35;;;;;;;26.33;5.07;;;;;;;15.65;53.20;93156.84;4971849;28;20196;-90
2024/03/31 09:33:03;;;;;;;17.75;4.60;;;;;;;15.65;53.44;93139.44;4972318;28;20235;-90
2024/03/31 09:35:28;;;;;;;19.52;5.18;;;;;;;15.94;52.22;93111.03;4971717;28;20215;-89
2024/03/31 09:38:03;;;;;;;24.63;5.22;;;;;;;16.22;51.47;93071.34;4979752;28;20556;-89
2024/03/31 09:40:31;;;;;;;21.30;4.93;;;;;;;16.55;50.62;93033.38;4987580;28;20199;-90
2024/03/31 09:43:05;;;;;;;25.65;5.22;;;;;;;17.16;48.80;92953.94;4974842;28;20228;-90
2024/03/31 09:45:36;;;;;;;26.30;5.20;;;;;;;17.66;48.02;92895.22;4971867;28;20683;-89
2024/03/31 09:48:09;;;;;;;21.75;5.13;;;;;;;17.77;48.34;92908.81;4972357;28;20199;-89
2024/03/31 09:50:38;;;;;;;20.17;5.03;;;;;;;17.59;47.84;92864.34;4971948;28;20204;-89
2024/03/31 09:53:10;;;;;;;18.70;5.22;;;;;;;17.42;47.51;92832.88;4971367;28;20698;-90
2024/03/31 09:55:42;;;;;;;24.20;5.28;;;;;;;17.36;47.65;92841.81;4971378;28;20605;-90
2024/03/31 09:58:13;;;;;;;23.88;4.78;;;;;;;17.31;48.17;92872.34;4970222;28;20200;-89
2024/03/31 10:00:46;;;;;;;25.85;5.35;;;;;;;17.25;48.21;92863.84;4971045;28;20223;-89
2024/03/31 10:03:26;;;;;;;20.88;4.65;;;;;;;17.13;47.07;92798.50;4971490;28;20224;-90
2024/03/31 10:05:55;;;;;;;28.10;5.07;;;;;;;17.13;48.04;92840.13;4970771;28;20228;-89
2024/03/31 10:08:29;;;;;;;20.95;4.43;;;;;;;17.15;47.63;92830.97;4971973;28;20672;-90
2024/03/31 10:10:58;;;;;;;19.42;4.63;;;;;;;17.19;48.24;92842.34;4971305;28;20200;-89
2024/03/31 10:13:26;;;;;;;17.52;4.50;;;;;;;17.37;48.43;92876.41;4971166;28;20204;-89
2024/03/31 10:16:00;;;;;;;16.92;4.70;;;;;;;17.26;48.03;92837.56;4970540;28;20264;-89
2024/03/31 10:18:36;;;;;;;21.85;4.38;;;;;;;17.29;48.13;92851.06;4971226;28;20293;-90
2024/03/31 10:21:06;;;;;;;20.80;4.63;;;;;;;17.31;47.99;92836.72;4970353;28;20231;-90
2024/03/31 10:23:43;;;;;;;23.48;5.07;;;;;;;17.26;48.35;92847.97;4970776;28;20266;-89
2024/03/31 10:26:20;;;;;;;22.70;5.80;;;;;;;17.43;48.41;92870.84;4970875;28;20620;-90
2024/03/31 10:28:47;;;;;;;23.33;4.65;;;;;;;17.55;48.93;92871.16;4970768;28;20235;-90
2024/03/31 10:31:21;;;;;;;25.83;5.43;;;;;;;17.78;48.36;92868.72;4969640;28;20952;-89
2024/03/31 10:36:32;;;;;;;20.98;4.82;;;;;;;18.23;48.13;92861.91;4985906;28;20199;-89
2024/03/31 10:38:58;;;;;;;15.32;4.38;;;;;;;18.38;47.17;92822.53;4990107;28;20218;-90
2024/03/31 10:41:29;;;;;;;24.55;5.00;;;;;;;18.49;47.24;92818.66;4989948;28;20208;-90
2024/03/31 10:44:00;;;;;;;19.70;4.55;;;;;;;18.60;46.62;92778.34;4990044;28;20314;-90
2024/03/31 10:46:34;;;;;;;26.05;5.50;;;;;;;18.73;47.11;92796.81;4982325;28;20208;-90
2024/03/31 10:49:03;;;;;;;23.52;4.68;;;;;;;19.13;46.80;92792.50;4970109;28;20638;-89
2024/03/31 10:51:37;;;;;;;21.27;4.20;;;;;;;19.52;45.75;92729.97;4970484;28;20210;-89
2024/03/31 10:54:29;;;;;;;18.58;4.43;;;;;;;19.95;45.28;92711.06;4970421;28;20298;-89
2024/03/31 10:57:05;;;;;;;15.25;4.72;;;;;;;20.19;44.72;92674.84;4970310;28;20212;-89
2024/03/31 10:59:40;;;;;;;21.70;4.70;;;;;;;19.99;44.69;92647.47;4970178;28;20233;-90
2024/03/31 11:02:16;;;;;;;26.10;5.20;;;;;;;19.88;45.22;92677.56;4969096;28;20246;-89
2024/03/31 11:04:59;;;;;;;17.33;3.55;;;;;;;19.79;45.61;92695.06;4969747;28;20231;-90
2024/03/31 11:07:37;;;;;;;19.65;4.55;;;;;;;19.46;44.94;92631.97;4970519;28;20674;-89
2024/03/31 11:10:06;;;;;;;19.45;4.60;;;;;;;19.40;45.56;92663.75;4970399;28;20218;-89
2024/03/31 11:12:49;;;;;;;24.17;4.85;;;;;;;19.61;46.08;92722.19;4970143;28;20201;-90
2024/03/31 11:15:27;;;;;;;20.60;4.13;;;;;;;19.76;45.94;92739.28;4969733;28;20232;-90
2024/03/31 11:17:56;;;;;;;22.15;4.30;;;;;;;19.84;45.85;92728.84;4969443;28;20290;-89
2024/03/31 11:20:23;;;;;;;13.52;3.90;;;;;;;20.06;46.29;92748.09;4968287;28;20208;-90
2024/03/31 11:23:59;;;;;;;21.58;4.53;;;;;;;20.12;46.26;92757.34;4969932;28;20818;-89
2024/03/31 11:26:25;;;;;;;18.20;4.35;;;;;;;20.60;45.81;92738.94;4874711;29;20208;-90
2024/03/31 11:28:54;;;;;;;17.92;4.07;;;;;;;20.87;46.02;92758.78;4958420;28;20215;-91
2024/03/31 11:34:09;;;;;;;20.83;4.88;;;;;;;21.51;44.52;92683.72;4986618;28;20730;-90
2024/03/31 11:36:45;;;;;;;;;;;;;;;;;;;;;
2024/03/31 11:39:15;;;;;;;15.63;3.85;;;;;;;21.48;42.38;92539.59;4968109;28;20211;-90
2024/03/31 11:41:44;;;;;;;20.15;4.60;;;;;;;21.65;41.44;92480.03;4968968;28;20355;-90
2024/03/31 11:44:11;;;;;;;18.02;4.30;;;;;;;21.71;41.00;92460.41;4969916;28;20224;-89
2024/03/31 11:46:37;;;;;;;17.10;4.35;;;;;;;21.78;41.07;92446.78;4969618;28;20283;-89
2024/03/31 11:49:04;;;;;;;18.63;4.10;;;;;;;21.76;40.26;92383.47;4969729;28;20287;-90
2024/03/31 11:51:37;;;;;;;24.42;4.53;;;;;;;21.96;40.31;92392.38;4967999;28;20212;-89
2024/03/31 11:54:07;;;;;;;16.65;3.83;;;;;;;22.27;41.11;92447.72;4969671;28;20212;-89
2024/03/31 11:56:36;;;;;;;22.08;5.55;;;;;;;22.60;42.55;92547.28;4970495;28;20204;-90
2024/03/31 11:59:18;;;;;;;25.25;5.68;;;;;;;22.78;43.38;92578.59;4970310;28;20212;-90
2024/03/31 12:01:45;;;;;;;22.95;4.30;;;;;;;23.04;42.43;92553.59;4969693;28;20932;-90
2024/03/31 12:04:14;;;;;;;23.83;5.30;;;;;;;23.22;41.92;92503.50;4969615;28;20319;-90
2024/03/31 12:06:48;;;;;;;17.67;4.45;;;;;;;23.25;40.42;92416.22;4967594;28;20208;-90